Time;durP1;ratioP1;P1;durP2;ratioP2;P2;SDS_P1;SDS_P2;PMS_P1;PMS_P2;Temp;Humidity;BMP_temperature;BMP_pressure;BME280_temperature;BME280_humidity;BME280_pressure;Samples;Min_cycle;Max_cycle;Signal;HPM_P1;HPM_P2
2022/12/05 00:00:29;;;;;;;70.55;44.85;;;;;;;;;;4993270;28;20026;-72
2022/12/05 00:02:55;;;;;;;95.75;60.55;;;;;;;;;;4992895;28;20022;-71
2022/12/05 00:05:21;;;;;;;91.40;56.70;;;;;;;;;;4979588;28;20477;-72
2022/12/05 00:07:48;;;;;;;54.85;39.05;;;;;;;;;;4993403;28;20488;-73
2022/12/05 00:10:14;;;;;;;75.70;49.03;;;;;;;;;;4992887;28;20134;-71
2022/12/05 00:12:40;;;;;;;41.45;28.35;;;;;;;;;;4993193;28;20029;-73
2022/12/05 00:15:08;;;;;;;31.27;21.65;;;;;;;;;;4992899;28;20455;-73
2022/12/05 00:17:34;;;;;;;53.83;32.17;;;;;;;;;;4993215;28;20061;-73
2022/12/05 00:20:00;;;;;;;56.30;44.47;;;;;;;;;;4989399;28;20026;-72
2022/12/05 00:22:26;;;;;;;60.70;40.60;;;;;;;;;;4986216;28;20540;-71
2022/12/05 00:24:52;;;;;;;53.17;36.00;;;;;;;;;;4987172;28;20026;-71
2022/12/05 00:27:18;;;;;;;47.90;32.67;;;;;;;;;;4989942;28;20030;-71
2022/12/05 00:29:44;;;;;;;88.07;62.20;;;;;;;;;;4988022;28;20032;-71
2022/12/05 00:32:10;;;;;;;54.53;41.53;;;;;;;;;;4993317;28;20122;-71
2022/12/05 00:34:36;;;;;;;54.13;40.35;;;;;;;;;;4992924;28;20046;-71
2022/12/05 00:37:02;;;;;;;36.47;27.23;;;;;;;;;;4993968;28;20042;-71
2022/12/05 00:39:28;;;;;;;32.58;22.95;;;;;;;;;;4997157;28;20041;-71
2022/12/05 00:41:55;;;;;;;60.25;39.70;;;;;;;;;;4996869;28;20053;-71
2022/12/05 00:44:21;;;;;;;81.82;48.50;;;;;;;;;;4995831;28;20034;-71
2022/12/05 00:46:47;;;;;;;103.25;54.00;;;;;;;;;;4996735;28;20030;-71
2022/12/05 00:49:13;;;;;;;69.95;38.70;;;;;;;;;;4996457;28;20019;-71
2022/12/05 00:51:41;;;;;;;46.72;28.30;;;;;;;;;;4996689;28;20433;-71
2022/12/05 00:54:08;;;;;;;48.03;28.98;;;;;;;;;;4996597;28;20022;-71
2022/12/05 00:56:35;;;;;;;31.55;20.98;;;;;;;;;;4996430;28;20041;-70
2022/12/05 00:59:02;;;;;;;25.48;17.02;;;;;;;;;;4996427;28;20050;-71
2022/12/05 01:01:32;;;;;;;25.52;18.33;;;;;;;;;;4996517;28;20027;-71
2022/12/05 01:03:59;;;;;;;28.30;19.73;;;;;;;;;;4996218;28;20072;-71
2022/12/05 01:06:25;;;;;;;34.80;23.30;;;;;;;;;;4996418;28;20045;-71
2022/12/05 01:08:53;;;;;;;36.15;25.95;;;;;;;;;;4994985;28;20050;-71
2022/12/05 01:11:19;;;;;;;33.53;23.10;;;;;;;;;;4976073;28;20045;-71
2022/12/05 01:13:45;;;;;;;76.25;47.72;;;;;;;;;;4988105;28;20065;-71
2022/12/05 01:16:19;;;;;;;61.65;40.45;;;;;;;;;;4996065;28;20030;-71
2022/12/05 01:18:45;;;;;;;51.55;35.85;;;;;;;;;;4996085;28;20030;-71
2022/12/05 01:21:12;;;;;;;43.28;30.77;;;;;;;;;;4995910;28;20029;-71
2022/12/05 01:23:38;;;;;;;54.53;33.45;;;;;;;;;;4996025;28;20022;-71
2022/12/05 01:26:06;;;;;;;49.80;32.47;;;;;;;;;;4996031;28;20459;-70
2022/12/05 01:28:32;;;;;;;41.67;29.33;;;;;;;;;;4995922;28;20110;-71
2022/12/05 01:30:58;;;;;;;54.45;34.97;;;;;;;;;;4995065;28;20404;-71
2022/12/05 01:33:24;;;;;;;40.05;28.20;;;;;;;;;;4982028;28;20489;-74
2022/12/05 01:35:50;;;;;;;68.25;42.78;;;;;;;;;;4995828;28;20030;-73
2022/12/05 01:38:16;;;;;;;38.72;26.92;;;;;;;;;;4995664;28;20473;-72
2022/12/05 01:40:42;;;;;;;45.38;30.33;;;;;;;;;;4994621;28;20489;-72
2022/12/05 01:43:16;;;;;;;37.30;25.23;;;;;;;;;;4995874;28;20077;-72
2022/12/05 01:45:43;;;;;;;35.78;23.60;;;;;;;;;;4994424;28;20381;-72
2022/12/05 01:48:20;;;;;;;38.45;27.23;;;;;;;;;;4994328;28;20097;-70
2022/12/05 01:50:47;;;;;;;28.20;20.08;;;;;;;;;;4995556;28;20093;-72
2022/12/05 01:53:13;;;;;;;37.67;24.65;;;;;;;;;;4995380;28;20414;-72
2022/12/05 01:55:39;;;;;;;30.90;20.85;;;;;;;;;;4995436;28;20026;-72
2022/12/05 01:58:07;;;;;;;29.42;19.67;;;;;;;;;;4995286;28;20469;-72
2022/12/05 02:00:33;;;;;;;27.13;18.67;;;;;;;;;;4995479;28;20031;-74
2022/12/05 02:03:01;;;;;;;24.52;16.63;;;;;;;;;;4995381;28;20026;-75
2022/12/05 02:05:28;;;;;;;103.50;55.95;;;;;;;;;;4995627;28;20027;-74
2022/12/05 02:07:55;;;;;;;46.08;28.67;;;;;;;;;;4995245;28;20054;-75
2022/12/05 02:10:21;;;;;;;34.83;23.55;;;;;;;;;;4994996;28;20076;-74
2022/12/05 02:12:49;;;;;;;35.45;24.35;;;;;;;;;;4994050;28;20038;-74
2022/12/05 02:15:15;;;;;;;30.65;20.48;;;;;;;;;;4995365;28;20073;-74
2022/12/05 02:17:44;;;;;;;34.38;23.25;;;;;;;;;;4995078;28;20026;-74
2022/12/05 02:20:19;;;;;;;30.98;21.70;;;;;;;;;;4994967;28;20499;-73
2022/12/05 02:22:45;;;;;;;25.25;16.33;;;;;;;;;;4995263;28;20026;-74
2022/12/05 02:25:15;;;;;;;24.05;16.70;;;;;;;;;;4994779;28;20065;-74
2022/12/05 02:27:53;;;;;;;27.92;17.17;;;;;;;;;;4994815;28;20018;-73
2022/12/05 02:30:20;;;;;;;19.88;13.88;;;;;;;;;;4994780;28;20137;-74
2022/12/05 02:32:49;;;;;;;25.45;16.45;;;;;;;;;;4994822;28;20073;-73
2022/12/05 02:35:18;;;;;;;22.17;14.73;;;;;;;;;;4981175;28;20026;-74
2022/12/05 02:38:04;;;;;;;21.77;15.10;;;;;;;;;;4995037;28;20033;-74
2022/12/05 02:40:43;;;;;;;18.08;12.43;;;;;;;;;;4994836;28;20067;-74
2022/12/05 02:43:17;;;;;;;19.15;13.43;;;;;;;;;;4994510;28;20040;-72
2022/12/05 02:45:45;;;;;;;21.73;13.80;;;;;;;;;;4994573;28;20528;-73
2022/12/05 02:48:12;;;;;;;19.40;13.52;;;;;;;;;;4994360;28;20076;-73
2022/12/05 02:50:39;;;;;;;19.60;13.70;;;;;;;;;;4994296;28;20489;-72
2022/12/05 02:53:11;;;;;;;22.10;16.25;;;;;;;;;;4994209;28;20041;-71
2022/12/05 02:55:38;;;;;;;28.83;19.00;;;;;;;;;;4993257;28;20026;-72
2022/12/05 02:58:07;;;;;;;29.55;20.40;;;;;;;;;;4994213;28;20034;-73
2022/12/05 03:00:35;;;;;;;68.20;43.75;;;;;;;;;;4992733;28;20026;-72
2022/12/05 03:03:01;;;;;;;32.65;20.70;;;;;;;;;;4994132;28;20058;-72
2022/12/05 03:05:46;;;;;;;32.03;23.17;;;;;;;;;;4994126;28;20026;-72
2022/12/05 03:08:16;;;;;;;32.08;22.08;;;;;;;;;;4993994;28;20046;-73
2022/12/05 03:10:45;;;;;;;35.03;21.67;;;;;;;;;;4993945;28;20030;-73
2022/12/05 03:13:14;;;;;;;30.58;21.60;;;;;;;;;;4984252;28;20120;-71
2022/12/05 03:15:43;;;;;;;31.60;21.80;;;;;;;;;;4996576;28;20058;-73
2022/12/05 03:18:12;;;;;;;30.80;22.25;;;;;;;;;;4995669;28;20034;-73
2022/12/05 03:20:43;;;;;;;32.55;22.85;;;;;;;;;;4984134;28;20153;-72
2022/12/05 03:23:15;;;;;;;30.08;22.70;;;;;;;;;;4994129;28;20389;-73
2022/12/05 03:25:54;;;;;;;31.23;23.58;;;;;;;;;;4994032;28;20067;-72
2022/12/05 03:28:34;;;;;;;29.13;21.70;;;;;;;;;;4993848;28;20499;-72
2022/12/05 03:31:04;;;;;;;34.92;22.88;;;;;;;;;;4992190;28;20403;-72
2022/12/05 03:33:34;;;;;;;57.30;33.58;;;;;;;;;;4993896;28;20050;-72
2022/12/05 03:36:15;;;;;;;91.57;50.97;;;;;;;;;;4993536;28;20520;-72
2022/12/05 03:38:46;;;;;;;65.25;37.35;;;;;;;;;;4993640;28;20109;-73
2022/12/05 03:41:12;;;;;;;;;;;;;;;;;;4993939;28;20027;-73
2022/12/05 03:43:44;;;;;;;79.45;44.67;;;;;;;;;;4993578;28;20390;-73
2022/12/05 03:46:13;;;;;;;45.63;27.70;;;;;;;;;;4992295;28;20579;-72
2022/12/05 03:48:48;;;;;;;28.25;18.83;;;;;;;;;;4992663;28;20043;-72
2022/12/05 03:51:16;;;;;;;21.17;15.43;;;;;;;;;;4993271;28;20039;-73
2022/12/05 03:53:48;;;;;;;30.30;20.70;;;;;;;;;;4993575;28;20464;-72
2022/12/05 03:56:20;;;;;;;44.60;27.95;;;;;;;;;;4993266;28;20062;-72
2022/12/05 03:58:56;;;;;;;93.07;52.30;;;;;;;;;;4993583;28;20485;-72
2022/12/05 04:01:24;;;;;;;38.92;24.25;;;;;;;;;;4980223;28;20085;-74
2022/12/05 04:03:56;;;;;;;29.50;18.02;;;;;;;;;;4993440;28;20480;-73
2022/12/05 04:06:30;;;;;;;58.55;36.70;;;;;;;;;;4993802;28;20109;-73
2022/12/05 04:09:04;;;;;;;31.48;19.95;;;;;;;;;;4992188;28;20074;-73
2022/12/05 04:11:34;;;;;;;51.70;29.02;;;;;;;;;;4994318;28;20550;-73
2022/12/05 04:14:05;;;;;;;34.22;20.05;;;;;;;;;;4997392;28;20113;-73
2022/12/05 04:19:21;;;;;;;34.47;22.63;;;;;;;;;;4997206;28;20380;-72
2022/12/05 04:21:49;;;;;;;36.90;23.70;;;;;;;;;;4997583;28;20018;-74
2022/12/05 04:27:22;;;;;;;38.97;25.45;;;;;;;;;;4997398;28;20400;-74
2022/12/05 04:29:59;;;;;;;44.17;29.08;;;;;;;;;;4996774;28;20025;-73
2022/12/05 04:32:27;;;;;;;32.92;23.35;;;;;;;;;;4997126;28;20030;-74
2022/12/05 04:34:56;;;;;;;35.70;25.85;;;;;;;;;;4996631;28;20389;-73
2022/12/05 04:37:25;;;;;;;33.33;23.33;;;;;;;;;;5005409;28;20121;-73
2022/12/05 04:39:58;;;;;;;30.90;22.30;;;;;;;;;;4998791;28;20054;-73
2022/12/05 04:42:26;;;;;;;40.35;24.05;;;;;;;;;;4997514;28;20117;-73
2022/12/05 04:44:56;;;;;;;40.22;27.55;;;;;;;;;;4996703;28;20061;-73
2022/12/05 04:47:27;;;;;;;44.50;30.63;;;;;;;;;;5000512;28;20018;-73
2022/12/05 04:50:02;;;;;;;37.92;24.83;;;;;;;;;;4998688;28;20030;-72
2022/12/05 04:52:33;;;;;;;64.43;41.05;;;;;;;;;;4996635;28;20500;-72
2022/12/05 04:55:07;;;;;;;55.80;34.40;;;;;;;;;;4996495;28;20139;-73
2022/12/05 04:57:35;;;;;;;58.88;38.22;;;;;;;;;;4995627;28;20027;-73
2022/12/05 05:00:01;;;;;;;66.03;34.47;;;;;;;;;;4996604;28;20023;-72
2022/12/05 05:02:33;;;;;;;50.20;35.35;;;;;;;;;;4996450;28;20025;-73
2022/12/05 05:05:03;;;;;;;43.88;32.10;;;;;;;;;;4996529;28;20027;-72
2022/12/05 05:07:29;;;;;;;41.45;29.85;;;;;;;;;;4996242;28;20049;-72
2022/12/05 05:09:56;;;;;;;46.55;33.75;;;;;;;;;;4996325;28;20065;-72
2022/12/05 05:12:22;;;;;;;42.17;30.33;;;;;;;;;;4996063;28;20104;-71
2022/12/05 05:14:48;;;;;;;52.38;37.05;;;;;;;;;;4996127;28;20380;-71
2022/12/05 05:17:14;;;;;;;47.33;34.25;;;;;;;;;;4995996;28;20492;-71
2022/12/05 05:19:40;;;;;;;56.38;39.95;;;;;;;;;;4996369;28;20101;-70
2022/12/05 05:22:06;;;;;;;52.70;35.80;;;;;;;;;;4995762;28;20552;-69
2022/12/05 05:24:32;;;;;;;45.97;32.80;;;;;;;;;;4996107;28;20527;-72
2022/12/05 05:26:58;;;;;;;41.63;30.10;;;;;;;;;;4996013;28;20026;-70
2022/12/05 05:29:24;;;;;;;44.22;31.20;;;;;;;;;;4995866;28;20073;-71
2022/12/05 05:31:50;;;;;;;45.83;30.50;;;;;;;;;;4982162;28;20370;-70
2022/12/05 05:34:16;;;;;;;37.25;27.25;;;;;;;;;;4996387;28;20456;-71
2022/12/05 05:36:43;;;;;;;34.20;24.45;;;;;;;;;;4995797;28;20041;-71
2022/12/05 05:39:11;;;;;;;47.72;30.88;;;;;;;;;;4995641;28;20022;-73
2022/12/05 05:41:37;;;;;;;39.78;29.13;;;;;;;;;;4986278;28;20464;-74
2022/12/05 05:44:04;;;;;;;45.38;31.02;;;;;;;;;;4994193;28;20392;-73
2022/12/05 05:46:36;;;;;;;46.00;31.33;;;;;;;;;;4995973;28;20026;-73
2022/12/05 05:49:02;;;;;;;70.53;49.72;;;;;;;;;;4995395;28;20089;-72
2022/12/05 05:51:29;;;;;;;100.72;71.10;;;;;;;;;;4995527;28;20042;-72
2022/12/05 05:53:55;;;;;;;119.60;76.32;;;;;;;;;;4995314;28;20030;-74
2022/12/05 05:56:22;;;;;;;135.60;90.32;;;;;;;;;;4990977;28;20037;-71
2022/12/05 05:58:55;;;;;;;125.15;82.13;;;;;;;;;;4988505;28;20033;-71
2022/12/05 06:01:21;;;;;;;97.15;65.68;;;;;;;;;;4995270;28;20034;-70
2022/12/05 06:03:47;;;;;;;78.80;53.75;;;;;;;;;;4995326;28;20037;-68
2022/12/05 06:06:14;;;;;;;84.88;56.80;;;;;;;;;;4990503;28;20050;-70
2022/12/05 06:08:41;;;;;;;89.28;61.50;;;;;;;;;;4989759;28;20444;-74
2022/12/05 06:11:08;;;;;;;85.90;56.72;;;;;;;;;;4987528;28;20050;-72
2022/12/05 06:13:34;;;;;;;90.72;61.42;;;;;;;;;;4990176;28;20042;-72
2022/12/05 06:16:00;;;;;;;115.90;74.38;;;;;;;;;;4987791;28;20029;-72
2022/12/05 06:18:26;;;;;;;116.30;74.00;;;;;;;;;;4986684;28;20031;-72
2022/12/05 06:20:55;;;;;;;117.20;76.43;;;;;;;;;;4982488;28;20022;-71
2022/12/05 06:23:22;;;;;;;119.32;76.57;;;;;;;;;;4987958;28;20073;-72
2022/12/05 06:25:49;;;;;;;140.25;100.45;;;;;;;;;;4990406;28;20035;-70
2022/12/05 06:28:15;;;;;;;136.52;92.32;;;;;;;;;;4984187;28;20027;-69
2022/12/05 06:30:41;;;;;;;144.05;95.43;;;;;;;;;;4986624;28;20034;-69
2022/12/05 06:33:08;;;;;;;127.88;85.20;;;;;;;;;;4985878;28;20030;-68
2022/12/05 06:35:34;;;;;;;137.35;93.40;;;;;;;;;;4990242;28;20034;-70
2022/12/05 06:38:00;;;;;;;153.45;103.80;;;;;;;;;;4984346;28;20089;-70
2022/12/05 06:40:26;;;;;;;164.82;110.65;;;;;;;;;;4993174;28;20388;-70
2022/12/05 06:42:52;;;;;;;144.90;102.28;;;;;;;;;;4994797;28;20373;-70
2022/12/05 06:45:18;;;;;;;135.98;99.00;;;;;;;;;;4994502;28;20027;-72
2022/12/05 06:47:44;;;;;;;136.77;103.03;;;;;;;;;;4994780;28;20022;-73
2022/12/05 06:50:10;;;;;;;120.90;84.70;;;;;;;;;;4987992;28;20030;-70
2022/12/05 06:52:36;;;;;;;127.57;89.20;;;;;;;;;;4991959;28;20506;-72
2022/12/05 06:55:02;;;;;;;103.35;72.13;;;;;;;;;;4982058;28;20093;-73
2022/12/05 06:57:28;;;;;;;75.00;49.97;;;;;;;;;;4980259;28;20077;-73
2022/12/05 07:01:37;;;;;;;69.10;47.97;;;;;;;;;;4994406;28;20117;-73
2022/12/05 07:02:40;;;;;;;112.93;74.15;;;;;;;;;;4993992;28;20473;-73
2022/12/05 07:05:07;;;;;;;131.88;91.97;;;;;;;;;;4993529;28;20019;-73
2022/12/05 07:07:33;;;;;;;161.27;113.70;;;;;;;;;;4982322;28;20070;-73
2022/12/05 07:10:12;;;;;;;160.68;112.28;;;;;;;;;;4994347;28;20416;-74
2022/12/05 07:12:42;;;;;;;156.38;110.22;;;;;;;;;;4993095;28;20502;-77
2022/12/05 07:15:09;;;;;;;154.03;108.93;;;;;;;;;;4993961;28;20377;-76
2022/12/05 07:17:43;;;;;;;157.32;106.40;;;;;;;;;;4993980;28;20034;-76
2022/12/05 07:20:09;;;;;;;157.88;106.90;;;;;;;;;;4992828;28;20085;-72
2022/12/05 07:22:36;;;;;;;158.63;109.65;;;;;;;;;;4992775;28;20088;-72
2022/12/05 07:25:04;;;;;;;150.90;105.20;;;;;;;;;;4994171;28;20046;-72
2022/12/05 07:27:30;;;;;;;146.27;106.15;;;;;;;;;;4979275;28;20077;-73
2022/12/05 07:29:57;;;;;;;154.38;105.13;;;;;;;;;;4993930;28;20023;-72
2022/12/05 07:32:23;;;;;;;135.98;95.93;;;;;;;;;;4981675;28;20136;-71
2022/12/05 07:34:49;;;;;;;143.98;98.78;;;;;;;;;;4991723;28;20030;-71
2022/12/05 07:37:15;;;;;;;138.77;94.10;;;;;;;;;;4993865;28;20099;-71
2022/12/05 07:39:41;;;;;;;137.43;99.15;;;;;;;;;;4990930;28;20030;-72
2022/12/05 07:42:07;;;;;;;143.20;98.03;;;;;;;;;;4980349;28;20022;-73
2022/12/05 07:44:33;;;;;;;113.57;77.20;;;;;;;;;;4993682;28;20030;-73
2022/12/05 07:46:59;;;;;;;108.53;70.80;;;;;;;;;;4979769;28;20030;-71
2022/12/05 07:49:26;;;;;;;101.65;60.85;;;;;;;;;;4993335;28;20035;-72
2022/12/05 07:51:52;;;;;;;89.72;58.75;;;;;;;;;;4992293;28;20069;-72
2022/12/05 07:54:18;;;;;;;93.15;59.53;;;;;;;;;;4993286;28;20085;-71
2022/12/05 07:56:44;;;;;;;93.90;57.03;;;;;;;;;;4980391;28;20045;-71
2022/12/05 07:59:10;;;;;;;82.97;54.70;;;;;;;;;;4992672;28;20041;-72
2022/12/05 08:01:36;;;;;;;100.05;60.38;;;;;;;;;;4981979;28;20035;-73
2022/12/05 08:04:02;;;;;;;105.80;62.80;;;;;;;;;;4989146;28;20058;-72
2022/12/05 08:06:29;;;;;;;124.90;75.60;;;;;;;;;;4991748;28;20029;-68
2022/12/05 08:08:55;;;;;;;115.82;75.60;;;;;;;;;;4978989;28;20078;-67
2022/12/05 08:11:23;;;;;;;116.35;76.15;;;;;;;;;;4993381;28;20100;-69
2022/12/05 08:13:49;;;;;;;118.30;73.57;;;;;;;;;;4993054;28;20026;-68
2022/12/05 08:16:17;;;;;;;99.72;69.78;;;;;;;;;;4993027;28;20057;-69
2022/12/05 08:18:43;;;;;;;90.03;63.53;;;;;;;;;;4984247;28;20037;-72
2022/12/05 08:21:10;;;;;;;105.72;63.80;;;;;;;;;;4988143;28;20080;-69
2022/12/05 08:23:37;;;;;;;100.88;64.32;;;;;;;;;;4983967;28;20477;-71
2022/12/05 08:26:07;;;;;;;92.82;63.25;;;;;;;;;;4985774;28;20030;-72
2022/12/05 08:28:34;;;;;;;102.60;69.22;;;;;;;;;;4990081;28;20384;-69
2022/12/05 08:31:08;;;;;;;112.88;74.85;;;;;;;;;;4998270;28;20124;-71
2022/12/05 08:33:34;;;;;;;114.82;73.75;;;;;;;;;;4994692;28;20026;-71
2022/12/05 08:36:08;;;;;;;124.32;74.75;;;;;;;;;;4994396;28;20547;-69
2022/12/05 08:38:36;;;;;;;126.30;74.72;;;;;;;;;;4998858;28;20076;-71
2022/12/05 08:41:09;;;;;;;98.15;67.93;;;;;;;;;;4990071;28;20089;-72
2022/12/05 08:43:38;;;;;;;106.32;66.65;;;;;;;;;;4991899;28;20376;-73
2022/12/05 08:46:04;;;;;;;106.55;70.85;;;;;;;;;;4993960;28;20524;-71
2022/12/05 08:48:31;;;;;;;103.00;65.55;;;;;;;;;;4993117;28;20431;-70
2022/12/05 08:50:58;;;;;;;84.97;56.05;;;;;;;;;;4983023;28;20034;-72
2022/12/05 08:53:24;;;;;;;78.95;53.03;;;;;;;;;;4989475;28;20030;-73
2022/12/05 08:55:50;;;;;;;67.78;43.65;;;;;;;;;;4988367;28;20037;-74
2022/12/05 08:58:16;;;;;;;88.50;46.63;;;;;;;;;;4983137;28;20058;-72
2022/12/05 09:00:43;;;;;;;87.15;42.92;;;;;;;;;;4987722;28;20026;-71
2022/12/05 09:03:10;;;;;;;66.03;37.58;;;;;;;;;;4989799;28;20025;-72
2022/12/05 09:05:36;;;;;;;62.38;37.58;;;;;;;;;;5005323;28;20022;-72
2022/12/05 09:08:03;;;;;;;68.88;44.08;;;;;;;;;;4998603;28;20097;-72
2022/12/05 09:10:29;;;;;;;59.80;39.35;;;;;;;;;;4995999;28;20022;-72
2022/12/05 09:12:55;;;;;;;56.20;39.47;;;;;;;;;;4995892;28;20164;-72
2022/12/05 09:15:21;;;;;;;52.83;38.63;;;;;;;;;;4996605;28;20073;-72
2022/12/05 09:17:47;;;;;;;66.43;37.80;;;;;;;;;;4995239;28;20042;-72
2022/12/05 09:20:13;;;;;;;66.70;40.38;;;;;;;;;;4995886;28;20496;-72
2022/12/05 09:22:40;;;;;;;67.88;41.03;;;;;;;;;;4996188;28;20049;-73
2022/12/05 09:25:06;;;;;;;59.20;39.78;;;;;;;;;;4995812;28;20027;-72
2022/12/05 09:27:32;;;;;;;74.70;37.90;;;;;;;;;;4995844;28;20022;-72
2022/12/05 09:29:58;;;;;;;81.22;49.85;;;;;;;;;;4995646;28;20029;-72
2022/12/05 09:32:24;;;;;;;59.90;40.35;;;;;;;;;;4995847;28;20042;-72
2022/12/05 09:34:50;;;;;;;59.42;36.72;;;;;;;;;;4995843;28;20034;-72
2022/12/05 09:37:17;;;;;;;48.67;34.80;;;;;;;;;;4995716;28;20034;-73
2022/12/05 09:39:46;;;;;;;41.72;32.30;;;;;;;;;;4995751;28;20101;-73
2022/12/05 09:42:18;;;;;;;49.38;33.58;;;;;;;;;;4995721;28;20069;-73
2022/12/05 09:44:47;;;;;;;50.72;32.58;;;;;;;;;;4995513;28;20076;-73
2022/12/05 09:47:23;;;;;;;37.53;27.17;;;;;;;;;;4995769;28;20400;-74
2022/12/05 09:49:53;;;;;;;32.55;23.88;;;;;;;;;;4995540;28;20035;-74
2022/12/05 09:52:30;;;;;;;42.47;26.17;;;;;;;;;;4995383;28;20040;-72
2022/12/05 09:54:58;;;;;;;49.70;34.17;;;;;;;;;;4995845;28;20476;-73
2022/12/05 09:57:29;;;;;;;45.25;30.38;;;;;;;;;;4995027;28;20428;-72
2022/12/05 09:59:55;;;;;;;51.67;28.52;;;;;;;;;;4995308;28;20015;-72
2022/12/05 10:02:45;;;;;;;40.72;25.55;;;;;;;;;;4995065;28;20088;-73
2022/12/05 10:05:16;;;;;;;51.28;26.73;;;;;;;;;;4995508;28;20388;-72
2022/12/05 10:08:02;;;;;;;47.10;30.17;;;;;;;;;;4995257;28;20070;-72
2022/12/05 10:10:44;;;;;;;39.00;27.35;;;;;;;;;;4994125;28;20113;-74
2022/12/05 10:13:30;;;;;;;36.00;25.42;;;;;;;;;;4994968;28;20817;-73
2022/12/05 10:16:02;;;;;;;42.10;27.60;;;;;;;;;;4995018;28;20064;-73
2022/12/05 10:18:28;;;;;;;34.95;26.48;;;;;;;;;;4995559;28;20081;-74
2022/12/05 10:20:59;;;;;;;58.63;39.15;;;;;;;;;;4981371;28;20050;-74
2022/12/05 10:23:29;;;;;;;51.22;32.58;;;;;;;;;;4980706;28;20042;-74
2022/12/05 10:25:57;;;;;;;39.20;25.40;;;;;;;;;;4994810;28;20026;-74
2022/12/05 10:28:33;;;;;;;36.03;25.77;;;;;;;;;;4994542;28;20050;-73
2022/12/05 10:31:02;;;;;;;48.40;32.00;;;;;;;;;;4994913;28;20049;-73
2022/12/05 10:33:30;;;;;;;43.17;32.70;;;;;;;;;;4994737;28;20534;-73
2022/12/05 10:35:56;;;;;;;34.38;23.92;;;;;;;;;;4994488;28;20034;-73
2022/12/05 10:38:24;;;;;;;34.33;23.25;;;;;;;;;;4994743;28;20014;-73
2022/12/05 10:40:52;;;;;;;35.95;25.88;;;;;;;;;;4994637;28;20487;-71
2022/12/05 10:43:27;;;;;;;33.88;26.23;;;;;;;;;;4994383;28;20492;-71
2022/12/05 10:45:54;;;;;;;43.95;26.63;;;;;;;;;;4994524;28;20031;-72
2022/12/05 10:48:21;;;;;;;39.17;24.85;;;;;;;;;;4994394;28;20034;-73
2022/12/05 10:50:48;;;;;;;40.03;28.10;;;;;;;;;;4993933;28;20033;-74
2022/12/05 10:53:15;;;;;;;50.13;34.65;;;;;;;;;;4994386;28;20034;-73
2022/12/05 10:55:45;;;;;;;51.15;39.97;;;;;;;;;;4994253;28;20077;-73
2022/12/05 10:58:22;;;;;;;44.42;30.75;;;;;;;;;;4993952;28;20058;-73
2022/12/05 11:00:52;;;;;;;42.60;22.40;;;;;;;;;;4994024;28;20424;-73
2022/12/05 11:03:21;;;;;;;39.78;26.75;;;;;;;;;;4994241;28;20097;-73
2022/12/05 11:05:49;;;;;;;35.72;20.33;;;;;;;;;;4994122;28;20034;-73
2022/12/05 11:08:21;;;;;;;50.90;28.98;;;;;;;;;;4994108;28;20050;-73
2022/12/05 11:10:58;;;;;;;29.52;19.95;;;;;;;;;;4993742;28;20029;-71
2022/12/05 11:13:25;;;;;;;44.50;21.90;;;;;;;;;;4994125;28;20034;-73
2022/12/05 11:15:51;;;;;;;16.48;12.57;;;;;;;;;;4994022;28;20030;-74
2022/12/05 11:18:19;;;;;;;19.65;12.07;;;;;;;;;;4994034;28;20092;-73
2022/12/05 11:20:45;;;;;;;23.30;17.73;;;;;;;;;;4993463;28;20030;-73
2022/12/05 11:23:38;;;;;;;30.30;16.45;;;;;;;;;;4993980;28;20026;-73
2022/12/05 11:26:04;;;;;;;27.52;15.35;;;;;;;;;;4993408;28;20037;-73
2022/12/05 11:28:31;;;;;;;21.20;14.32;;;;;;;;;;4993985;28;20036;-73
2022/12/05 11:30:59;;;;;;;25.50;16.95;;;;;;;;;;4993655;28;20484;-73
2022/12/05 11:33:26;;;;;;;36.45;20.10;;;;;;;;;;4992825;28;20038;-73
2022/12/05 11:35:54;;;;;;;17.58;13.35;;;;;;;;;;4993652;28;20558;-73
2022/12/05 11:38:22;;;;;;;25.30;14.30;;;;;;;;;;4992465;28;20066;-74
2022/12/05 11:41:21;;;;;;;20.75;12.77;;;;;;;;;;4992613;28;20121;-74
2022/12/05 11:43:47;;;;;;;29.80;15.20;;;;;;;;;;4985242;28;20516;-74
2022/12/05 11:46:32;;;;;;;21.20;15.20;;;;;;;;;;4972294;28;20027;-73
2022/12/05 11:49:16;;;;;;;26.83;17.33;;;;;;;;;;4972217;28;20038;-74
2022/12/05 11:51:51;;;;;;;21.02;13.82;;;;;;;;;;4971787;28;20367;-74
2022/12/05 11:54:35;;;;;;;19.63;11.98;;;;;;;;;;4972012;28;20042;-72
2022/12/05 11:57:27;;;;;;;26.40;15.43;;;;;;;;;;4971619;28;20038;-74
2022/12/05 11:59:56;;;;;;;31.65;22.33;;;;;;;;;;4978960;28;20498;-71
2022/12/05 12:02:34;;;;;;;37.10;25.35;;;;;;;;;;4971668;28;20075;-73
2022/12/05 12:05:20;;;;;;;21.25;14.45;;;;;;;;;;4971879;28;20033;-71
2022/12/05 12:07:55;;;;;;;39.85;21.45;;;;;;;;;;4971090;28;20046;-73
2022/12/05 12:10:43;;;;;;;29.50;17.42;;;;;;;;;;4971768;28;20027;-73
2022/12/05 12:13:28;;;;;;;44.53;26.40;;;;;;;;;;4985282;28;20207;-71
2022/12/05 12:16:03;;;;;;;55.53;41.63;;;;;;;;;;4971659;28;20038;-71
2022/12/05 12:18:38;;;;;;;65.60;34.03;;;;;;;;;;4972231;28;20042;-71
2022/12/05 12:21:07;;;;;;;32.15;17.27;;;;;;;;;;4988434;28;20026;-71
2022/12/05 12:23:33;;;;;;;307.65;274.13;;;;;;;;;;4993583;28;20369;-72
2022/12/05 12:26:11;;;;;;;76.80;66.80;;;;;;;;;;4993166;28;20117;-72
2022/12/05 12:28:41;;;;;;;60.72;55.10;;;;;;;;;;4991970;28;20038;-73
2022/12/05 12:31:26;;;;;;;46.42;30.35;;;;;;;;;;4993077;28;20026;-71
2022/12/05 12:33:54;;;;;;;80.50;54.17;;;;;;;;;;4996577;28;20022;-74
2022/12/05 12:36:20;;;;;;;43.42;28.98;;;;;;;;;;4996760;28;20117;-72
2022/12/05 12:38:51;;;;;;;30.63;22.58;;;;;;;;;;4997164;28;20031;-72
2022/12/05 12:41:20;;;;;;;26.85;18.35;;;;;;;;;;4996785;28;20451;-72
2022/12/05 12:44:00;;;;;;;34.28;26.95;;;;;;;;;;4996907;28;20018;-73
2022/12/05 12:46:29;;;;;;;37.50;31.20;;;;;;;;;;4996762;28;20381;-73
2022/12/05 12:49:02;;;;;;;27.40;18.63;;;;;;;;;;4996616;28;20121;-72
2022/12/05 12:51:35;;;;;;;85.70;51.97;;;;;;;;;;4995768;28;20084;-72
2022/12/05 12:54:01;;;;;;;30.77;21.15;;;;;;;;;;4996806;28;20027;-73
2022/12/05 12:56:37;;;;;;;35.72;21.67;;;;;;;;;;4996787;28;20109;-72
2022/12/05 12:59:09;;;;;;;33.08;19.63;;;;;;;;;;4992144;28;20054;-73
2022/12/05 13:01:54;;;;;;;45.97;24.95;;;;;;;;;;4996246;28;20540;-73
2022/12/05 13:04:23;;;;;;;41.33;27.83;;;;;;;;;;4996085;28;20022;-71
2022/12/05 13:06:56;;;;;;;39.40;21.90;;;;;;;;;;4996413;28;20056;-72
2022/12/05 13:09:26;;;;;;;29.90;20.33;;;;;;;;;;4996078;28;20042;-71
2022/12/05 13:11:54;;;;;;;37.78;25.08;;;;;;;;;;4996102;28;20503;-72
2022/12/05 13:14:24;;;;;;;40.53;19.65;;;;;;;;;;4996517;28;20035;-71
2022/12/05 13:16:51;;;;;;;45.95;28.13;;;;;;;;;;4996124;28;20113;-73
2022/12/05 13:19:20;;;;;;;32.38;20.40;;;;;;;;;;4994797;28;20477;-72
2022/12/05 13:21:47;;;;;;;32.38;18.63;;;;;;;;;;4996174;28;20399;-73
2022/12/05 13:24:13;;;;;;;41.15;23.35;;;;;;;;;;4996173;28;20026;-73
2022/12/05 13:26:44;;;;;;;29.70;17.73;;;;;;;;;;4995969;28;20121;-72
2022/12/05 13:29:18;;;;;;;25.85;15.63;;;;;;;;;;4995847;28;20062;-73
2022/12/05 13:31:46;;;;;;;27.90;16.35;;;;;;;;;;4996076;28;20128;-72
2022/12/05 13:34:33;;;;;;;36.10;22.98;;;;;;;;;;4995078;28;20062;-72
2022/12/05 13:42:39;;;;;;;31.38;21.40;;;;;;;;;;4995313;28;20069;-73
2022/12/05 13:45:16;;;;;;;38.85;22.05;;;;;;;;;;4995118;28;20015;-73
2022/12/05 13:47:55;;;;;;;35.25;21.83;;;;;;;;;;4995360;28;20022;-73
2022/12/05 13:50:33;;;;;;;48.15;32.72;;;;;;;;;;4995092;28;20372;-73
2022/12/05 13:53:20;;;;;;;37.70;25.00;;;;;;;;;;4994446;28;20078;-73
2022/12/05 13:55:57;;;;;;;41.28;22.63;;;;;;;;;;4990389;28;20337;-72
2022/12/05 13:58:23;;;;;;;33.70;22.70;;;;;;;;;;4995251;28;20028;-73
2022/12/05 14:00:51;;;;;;;27.92;23.13;;;;;;;;;;4994955;28;20054;-72
2022/12/05 14:03:32;;;;;;;29.52;22.75;;;;;;;;;;4994831;28;20019;-73
2022/12/05 14:05:58;;;;;;;32.75;22.33;;;;;;;;;;4995015;28;20022;-74
2022/12/05 14:08:33;;;;;;;34.20;23.25;;;;;;;;;;4995110;28;20086;-74
2022/12/05 14:11:00;;;;;;;37.35;24.85;;;;;;;;;;4995132;28;20031;-74
2022/12/05 14:13:26;;;;;;;31.58;22.17;;;;;;;;;;4995542;28;20135;-73
2022/12/05 14:16:15;;;;;;;27.90;21.98;;;;;;;;;;4994751;28;20026;-71
2022/12/05 14:18:45;;;;;;;33.47;22.08;;;;;;;;;;4995213;28;20032;-72
2022/12/05 14:21:21;;;;;;;50.78;30.33;;;;;;;;;;4995026;28;20400;-70
2022/12/05 14:23:51;;;;;;;47.05;30.52;;;;;;;;;;4995097;28;20098;-72
2022/12/05 14:26:19;;;;;;;47.30;35.17;;;;;;;;;;4995309;28;20057;-72
2022/12/05 14:28:45;;;;;;;53.10;36.00;;;;;;;;;;4994594;28;20026;-72
2022/12/05 14:31:18;;;;;;;49.70;37.47;;;;;;;;;;4994180;28;20034;-72
2022/12/05 14:33:44;;;;;;;56.85;42.47;;;;;;;;;;4994919;28;20361;-71
2022/12/05 14:36:18;;;;;;;72.93;48.30;;;;;;;;;;4994464;28;20091;-72
2022/12/05 14:38:44;;;;;;;68.15;52.88;;;;;;;;;;4994264;28;20030;-72